sensor_id;sensor_type;location;lat;lon;timestamp;P1;durP1;ratioP1;P2;durP2;ratioP2
8397;SDS011;4236;54.504;9.588;2023-04-24T00:00:01;14.00;;;12.73;;
8397;SDS011;4236;54.504;9.588;2023-04-24T00:02:31;13.87;;;12.60;;
8397;SDS011;4236;54.504;9.588;2023-04-24T00:04:59;13.90;;;12.80;;
8397;SDS011;4236;54.504;9.588;2023-04-24T00:07:29;12.77;;;11.70;;
8397;SDS011;4236;54.504;9.588;2023-04-24T00:09:56;13.77;;;12.67;;
8397;SDS011;4236;54.504;9.588;2023-04-24T00:12:25;14.90;;;13.57;;
8397;SDS011;4236;54.504;9.588;2023-04-24T00:14:54;14.93;;;13.50;;
8397;SDS011;4236;54.504;9.588;2023-04-24T00:17:22;14.33;;;12.93;;
8397;SDS011;4236;54.504;9.588;2023-04-24T00:19:49;14.50;;;13.23;;
8397;SDS011;4236;54.504;9.588;2023-04-24T00:22:17;16.63;;;14.30;;
8397;SDS011;4236;54.504;9.588;2023-04-24T00:24:46;15.27;;;13.67;;
8397;SDS011;4236;54.504;9.588;2023-04-24T00:27:14;15.70;;;14.10;;
8397;SDS011;4236;54.504;9.588;2023-04-24T00:29:42;15.37;;;13.83;;
8397;SDS011;4236;54.504;9.588;2023-04-24T00:32:11;15.37;;;13.97;;
8397;SDS011;4236;54.504;9.588;2023-04-24T00:34:39;21.80;;;16.40;;
8397;SDS011;4236;54.504;9.588;2023-04-24T00:37:07;16.90;;;15.50;;
8397;SDS011;4236;54.504;9.588;2023-04-24T00:39:34;15.73;;;14.20;;
8397;SDS011;4236;54.504;9.588;2023-04-24T00:42:02;16.87;;;14.63;;
8397;SDS011;4236;54.504;9.588;2023-04-24T00:44:32;16.10;;;14.70;;
8397;SDS011;4236;54.504;9.588;2023-04-24T00:47:00;17.87;;;16.20;;
8397;SDS011;4236;54.504;9.588;2023-04-24T00:49:29;15.10;;;13.83;;
8397;SDS011;4236;54.504;9.588;2023-04-24T00:51:57;15.90;;;14.53;;
8397;SDS011;4236;54.504;9.588;2023-04-24T00:54:25;17.33;;;15.73;;
8397;SDS011;4236;54.504;9.588;2023-04-24T00:56:53;16.33;;;14.83;;
8397;SDS011;4236;54.504;9.588;2023-04-24T00:59:21;16.23;;;14.73;;
8397;SDS011;4236;54.504;9.588;2023-04-24T01:01:48;18.43;;;16.30;;
8397;SDS011;4236;54.504;9.588;2023-04-24T01:04:16;17.17;;;15.70;;
8397;SDS011;4236;54.504;9.588;2023-04-24T01:06:46;17.77;;;15.97;;
8397;SDS011;4236;54.504;9.588;2023-04-24T01:09:18;18.50;;;16.70;;
8397;SDS011;4236;54.504;9.588;2023-04-24T01:11:48;19.27;;;17.57;;
8397;SDS011;4236;54.504;9.588;2023-04-24T01:14:16;17.00;;;15.57;;
8397;SDS011;4236;54.504;9.588;2023-04-24T01:16:44;16.77;;;15.20;;
8397;SDS011;4236;54.504;9.588;2023-04-24T01:19:12;19.57;;;17.53;;
8397;SDS011;4236;54.504;9.588;2023-04-24T01:21:44;19.00;;;17.10;;
8397;SDS011;4236;54.504;9.588;2023-04-24T01:24:19;20.17;;;18.27;;
8397;SDS011;4236;54.504;9.588;2023-04-24T01:26:47;18.93;;;17.13;;
8397;SDS011;4236;54.504;9.588;2023-04-24T01:29:15;17.40;;;15.80;;
8397;SDS011;4236;54.504;9.588;2023-04-24T01:31:43;18.27;;;16.47;;
8397;SDS011;4236;54.504;9.588;2023-04-24T01:34:10;19.93;;;17.80;;
8397;SDS011;4236;54.504;9.588;2023-04-24T01:36:38;19.40;;;17.60;;
8397;SDS011;4236;54.504;9.588;2023-04-24T01:39:08;19.00;;;17.20;;
8397;SDS011;4236;54.504;9.588;2023-04-24T01:41:37;17.80;;;16.20;;
8397;SDS011;4236;54.504;9.588;2023-04-24T01:44:05;18.40;;;16.90;;
8397;SDS011;4236;54.504;9.588;2023-04-24T01:46:33;19.40;;;17.60;;
8397;SDS011;4236;54.504;9.588;2023-04-24T01:49:02;19.23;;;17.50;;
8397;SDS011;4236;54.504;9.588;2023-04-24T01:51:29;20.90;;;18.70;;
8397;SDS011;4236;54.504;9.588;2023-04-24T01:53:57;19.20;;;17.40;;
8397;SDS011;4236;54.504;9.588;2023-04-24T01:56:25;20.10;;;18.17;;
8397;SDS011;4236;54.504;9.588;2023-04-24T01:58:57;18.13;;;16.50;;
8397;SDS011;4236;54.504;9.588;2023-04-24T02:01:25;19.73;;;17.83;;
8397;SDS011;4236;54.504;9.588;2023-04-24T02:03:52;18.43;;;16.73;;
8397;SDS011;4236;54.504;9.588;2023-04-24T02:06:20;21.97;;;19.80;;
8397;SDS011;4236;54.504;9.588;2023-04-24T02:08:48;21.50;;;19.60;;
8397;SDS011;4236;54.504;9.588;2023-04-24T02:11:16;19.83;;;17.93;;
8397;SDS011;4236;54.504;9.588;2023-04-24T02:13:43;20.70;;;18.87;;
8397;SDS011;4236;54.504;9.588;2023-04-24T02:16:12;20.53;;;18.07;;
8397;SDS011;4236;54.504;9.588;2023-04-24T02:18:40;21.50;;;19.60;;
8397;SDS011;4236;54.504;9.588;2023-04-24T02:21:08;21.47;;;19.50;;
8397;SDS011;4236;54.504;9.588;2023-04-24T02:23:35;21.00;;;19.03;;
8397;SDS011;4236;54.504;9.588;2023-04-24T02:26:03;21.33;;;19.17;;
8397;SDS011;4236;54.504;9.588;2023-04-24T02:28:31;21.60;;;19.70;;
8397;SDS011;4236;54.504;9.588;2023-04-24T02:30:58;21.67;;;19.73;;
8397;SDS011;4236;54.504;9.588;2023-04-24T02:33:28;21.93;;;19.77;;
8397;SDS011;4236;54.504;9.588;2023-04-24T02:35:55;21.60;;;19.73;;
8397;SDS011;4236;54.504;9.588;2023-04-24T02:38:23;20.07;;;18.27;;
8397;SDS011;4236;54.504;9.588;2023-04-24T02:40:50;20.70;;;18.97;;
8397;SDS011;4236;54.504;9.588;2023-04-24T02:43:18;20.00;;;18.30;;
8397;SDS011;4236;54.504;9.588;2023-04-24T02:45:46;18.47;;;16.77;;
8397;SDS011;4236;54.504;9.588;2023-04-24T02:48:14;18.80;;;17.20;;
8397;SDS011;4236;54.504;9.588;2023-04-24T02:50:43;20.23;;;18.60;;
8397;SDS011;4236;54.504;9.588;2023-04-24T02:53:11;19.90;;;18.10;;
8397;SDS011;4236;54.504;9.588;2023-04-24T02:55:39;19.13;;;17.53;;
8397;SDS011;4236;54.504;9.588;2023-04-24T02:58:06;19.13;;;17.63;;
8397;SDS011;4236;54.504;9.588;2023-04-24T03:00:34;18.70;;;16.90;;
8397;SDS011;4236;54.504;9.588;2023-04-24T03:03:02;19.93;;;18.20;;
8397;SDS011;4236;54.504;9.588;2023-04-24T03:05:30;19.70;;;18.07;;
8397;SDS011;4236;54.504;9.588;2023-04-24T03:07:59;19.27;;;17.37;;
8397;SDS011;4236;54.504;9.588;2023-04-24T03:10:27;17.90;;;16.40;;
8397;SDS011;4236;54.504;9.588;2023-04-24T03:12:54;18.67;;;17.23;;
8397;SDS011;4236;54.504;9.588;2023-04-24T03:15:22;20.20;;;18.23;;
8397;SDS011;4236;54.504;9.588;2023-04-24T03:17:50;19.97;;;18.37;;
8397;SDS011;4236;54.504;9.588;2023-04-24T03:20:21;18.63;;;17.23;;
8397;SDS011;4236;54.504;9.588;2023-04-24T03:22:50;18.90;;;17.40;;
8397;SDS011;4236;54.504;9.588;2023-04-24T03:25:19;19.30;;;17.80;;
8397;SDS011;4236;54.504;9.588;2023-04-24T03:27:47;19.37;;;17.30;;
8397;SDS011;4236;54.504;9.588;2023-04-24T03:30:15;18.90;;;17.40;;
8397;SDS011;4236;54.504;9.588;2023-04-24T03:32:42;18.77;;;17.37;;
8397;SDS011;4236;54.504;9.588;2023-04-24T03:35:10;19.00;;;17.50;;
8397;SDS011;4236;54.504;9.588;2023-04-24T03:37:38;19.53;;;18.10;;
8397;SDS011;4236;54.504;9.588;2023-04-24T03:40:06;19.57;;;17.80;;
8397;SDS011;4236;54.504;9.588;2023-04-24T03:42:36;19.27;;;17.80;;
8397;SDS011;4236;54.504;9.588;2023-04-24T03:45:05;21.80;;;20.10;;
8397;SDS011;4236;54.504;9.588;2023-04-24T03:47:33;21.07;;;19.40;;
8397;SDS011;4236;54.504;9.588;2023-04-24T03:50:01;20.10;;;17.10;;
8397;SDS011;4236;54.504;9.588;2023-04-24T03:52:29;19.10;;;17.70;;
8397;SDS011;4236;54.504;9.588;2023-04-24T03:54:56;18.13;;;16.73;;
8397;SDS011;4236;54.504;9.588;2023-04-24T03:57:24;18.67;;;17.00;;
8397;SDS011;4236;54.504;9.588;2023-04-24T03:59:53;17.93;;;16.70;;
8397;SDS011;4236;54.504;9.588;2023-04-24T04:02:21;16.50;;;15.40;;
8397;SDS011;4236;54.504;9.588;2023-04-24T04:04:49;17.80;;;16.50;;
8397;SDS011;4236;54.504;9.588;2023-04-24T04:07:17;17.47;;;16.17;;
8397;SDS011;4236;54.504;9.588;2023-04-24T04:09:45;17.93;;;16.37;;
8397;SDS011;4236;54.504;9.588;2023-04-24T04:12:12;16.77;;;15.57;;
8397;SDS011;4236;54.504;9.588;2023-04-24T04:14:40;16.67;;;15.57;;
8397;SDS011;4236;54.504;9.588;2023-04-24T04:17:09;15.90;;;14.80;;
8397;SDS011;4236;54.504;9.588;2023-04-24T04:19:37;16.40;;;14.90;;
8397;SDS011;4236;54.504;9.588;2023-04-24T04:22:04;14.23;;;13.33;;
8397;SDS011;4236;54.504;9.588;2023-04-24T04:24:34;14.00;;;13.00;;
8397;SDS011;4236;54.504;9.588;2023-04-24T04:27:04;14.10;;;13.20;;
8397;SDS011;4236;54.504;9.588;2023-04-24T04:29:32;13.43;;;12.73;;
8397;SDS011;4236;54.504;9.588;2023-04-24T04:32:00;12.70;;;12.00;;
8397;SDS011;4236;54.504;9.588;2023-04-24T04:34:30;12.87;;;12.17;;
8397;SDS011;4236;54.504;9.588;2023-04-24T04:36:57;12.30;;;11.60;;
8397;SDS011;4236;54.504;9.588;2023-04-24T04:39:27;12.73;;;11.97;;
8397;SDS011;4236;54.504;9.588;2023-04-24T04:41:56;12.93;;;12.13;;
8397;SDS011;4236;54.504;9.588;2023-04-24T04:44:24;13.13;;;12.33;;
8397;SDS011;4236;54.504;9.588;2023-04-24T04:46:55;14.97;;;13.40;;
8397;SDS011;4236;54.504;9.588;2023-04-24T04:49:24;14.10;;;13.00;;
8397;SDS011;4236;54.504;9.588;2023-04-24T04:51:55;13.30;;;12.50;;
8397;SDS011;4236;54.504;9.588;2023-04-24T04:54:23;11.83;;;11.20;;
8397;SDS011;4236;54.504;9.588;2023-04-24T04:56:51;11.73;;;11.13;;
8397;SDS011;4236;54.504;9.588;2023-04-24T04:59:19;11.87;;;11.17;;
8397;SDS011;4236;54.504;9.588;2023-04-24T05:01:46;11.90;;;11.33;;
8397;SDS011;4236;54.504;9.588;2023-04-24T05:04:14;11.90;;;11.30;;
8397;SDS011;4236;54.504;9.588;2023-04-24T05:06:42;11.80;;;11.17;;
8397;SDS011;4236;54.504;9.588;2023-04-24T05:09:11;11.60;;;11.03;;
8397;SDS011;4236;54.504;9.588;2023-04-24T05:11:39;10.97;;;10.40;;
8397;SDS011;4236;54.504;9.588;2023-04-24T05:14:07;11.33;;;10.70;;
8397;SDS011;4236;54.504;9.588;2023-04-24T05:16:34;11.00;;;10.10;;
8397;SDS011;4236;54.504;9.588;2023-04-24T05:19:03;10.70;;;10.20;;
8397;SDS011;4236;54.504;9.588;2023-04-24T05:21:31;10.87;;;10.20;;
8397;SDS011;4236;54.504;9.588;2023-04-24T05:23:58;10.50;;;10.00;;
8397;SDS011;4236;54.504;9.588;2023-04-24T05:26:28;11.70;;;11.17;;
8397;SDS011;4236;54.504;9.588;2023-04-24T05:28:55;11.50;;;11.00;;
8397;SDS011;4236;54.504;9.588;2023-04-24T05:31:23;11.10;;;10.60;;
8397;SDS011;4236;54.504;9.588;2023-04-24T05:33:52;11.73;;;11.17;;
8397;SDS011;4236;54.504;9.588;2023-04-24T05:36:19;10.60;;;10.10;;
8397;SDS011;4236;54.504;9.588;2023-04-24T05:38:47;10.67;;;10.17;;
8397;SDS011;4236;54.504;9.588;2023-04-24T05:41:15;11.00;;;10.50;;
8397;SDS011;4236;54.504;9.588;2023-04-24T05:43:44;10.70;;;10.20;;
8397;SDS011;4236;54.504;9.588;2023-04-24T05:46:11;11.23;;;10.63;;
8397;SDS011;4236;54.504;9.588;2023-04-24T05:48:39;10.20;;;9.80;;
8397;SDS011;4236;54.504;9.588;2023-04-24T05:51:09;11.20;;;10.53;;
8397;SDS011;4236;54.504;9.588;2023-04-24T05:53:36;11.00;;;10.40;;
8397;SDS011;4236;54.504;9.588;2023-04-24T05:56:04;11.13;;;10.60;;
8397;SDS011;4236;54.504;9.588;2023-04-24T05:58:32;10.77;;;10.27;;
8397;SDS011;4236;54.504;9.588;2023-04-24T06:01:01;10.47;;;9.97;;
8397;SDS011;4236;54.504;9.588;2023-04-24T06:03:29;10.77;;;10.27;;
8397;SDS011;4236;54.504;9.588;2023-04-24T06:05:57;11.57;;;10.90;;
8397;SDS011;4236;54.504;9.588;2023-04-24T06:08:24;11.67;;;10.97;;
8397;SDS011;4236;54.504;9.588;2023-04-24T06:10:53;10.80;;;10.27;;
8397;SDS011;4236;54.504;9.588;2023-04-24T06:13:20;11.10;;;10.40;;
8397;SDS011;4236;54.504;9.588;2023-04-24T06:15:48;11.10;;;10.60;;
8397;SDS011;4236;54.504;9.588;2023-04-24T06:18:17;11.37;;;10.77;;
8397;SDS011;4236;54.504;9.588;2023-04-24T06:20:45;12.13;;;11.53;;
8397;SDS011;4236;54.504;9.588;2023-04-24T06:23:13;10.90;;;10.30;;
8397;SDS011;4236;54.504;9.588;2023-04-24T06:25:40;11.50;;;10.80;;
8397;SDS011;4236;54.504;9.588;2023-04-24T06:28:08;11.20;;;10.30;;
8397;SDS011;4236;54.504;9.588;2023-04-24T06:30:36;11.90;;;11.40;;
8397;SDS011;4236;54.504;9.588;2023-04-24T06:33:03;11.73;;;11.03;;
8397;SDS011;4236;54.504;9.588;2023-04-24T06:35:47;11.80;;;11.20;;
8397;SDS011;4236;54.504;9.588;2023-04-24T06:38:14;11.47;;;10.80;;
8397;SDS011;4236;54.504;9.588;2023-04-24T06:40:43;10.87;;;10.27;;
8397;SDS011;4236;54.504;9.588;2023-04-24T06:43:11;11.90;;;11.30;;
8397;SDS011;4236;54.504;9.588;2023-04-24T06:45:38;11.30;;;10.70;;
8397;SDS011;4236;54.504;9.588;2023-04-24T06:48:06;12.50;;;11.90;;
8397;SDS011;4236;54.504;9.588;2023-04-24T06:50:34;12.77;;;12.10;;
8397;SDS011;4236;54.504;9.588;2023-04-24T06:53:03;12.90;;;12.20;;
8397;SDS011;4236;54.504;9.588;2023-04-24T06:55:31;12.00;;;11.40;;
8397;SDS011;4236;54.504;9.588;2023-04-24T06:57:59;13.57;;;12.87;;
8397;SDS011;4236;54.504;9.588;2023-04-24T07:00:27;12.60;;;12.00;;
8397;SDS011;4236;54.504;9.588;2023-04-24T07:02:56;13.10;;;12.10;;
8397;SDS011;4236;54.504;9.588;2023-04-24T07:05:24;12.40;;;11.90;;
8397;SDS011;4236;54.504;9.588;2023-04-24T07:07:52;11.17;;;10.67;;
8397;SDS011;4236;54.504;9.588;2023-04-24T07:10:21;11.77;;;11.10;;
8397;SDS011;4236;54.504;9.588;2023-04-24T07:12:49;11.43;;;10.90;;
8397;SDS011;4236;54.504;9.588;2023-04-24T07:15:17;11.53;;;11.00;;
8397;SDS011;4236;54.504;9.588;2023-04-24T07:17:45;12.40;;;11.60;;
8397;SDS011;4236;54.504;9.588;2023-04-24T07:20:12;11.83;;;10.90;;
8397;SDS011;4236;54.504;9.588;2023-04-24T07:22:41;12.03;;;11.40;;
8397;SDS011;4236;54.504;9.588;2023-04-24T07:25:09;12.20;;;11.60;;
8397;SDS011;4236;54.504;9.588;2023-04-24T07:27:38;12.57;;;11.87;;
8397;SDS011;4236;54.504;9.588;2023-04-24T07:30:06;10.93;;;10.37;;
8397;SDS011;4236;54.504;9.588;2023-04-24T07:32:34;11.50;;;10.87;;
8397;SDS011;4236;54.504;9.588;2023-04-24T07:35:02;11.67;;;11.07;;
8397;SDS011;4236;54.504;9.588;2023-04-24T07:37:31;12.30;;;11.70;;
8397;SDS011;4236;54.504;9.588;2023-04-24T07:39:58;11.50;;;10.90;;
8397;SDS011;4236;54.504;9.588;2023-04-24T07:42:27;13.23;;;12.50;;
8397;SDS011;4236;54.504;9.588;2023-04-24T07:44:58;12.00;;;11.40;;
8397;SDS011;4236;54.504;9.588;2023-04-24T07:47:25;12.17;;;11.47;;
8397;SDS011;4236;54.504;9.588;2023-04-24T07:49:53;12.77;;;12.10;;
8397;SDS011;4236;54.504;9.588;2023-04-24T07:52:21;12.37;;;11.57;;
8397;SDS011;4236;54.504;9.588;2023-04-24T07:54:49;11.53;;;10.93;;
8397;SDS011;4236;54.504;9.588;2023-04-24T07:57:18;11.70;;;11.10;;
8397;SDS011;4236;54.504;9.588;2023-04-24T07:59:46;11.67;;;10.70;;
8397;SDS011;4236;54.504;9.588;2023-04-24T08:02:15;12.90;;;11.83;;
8397;SDS011;4236;54.504;9.588;2023-04-24T08:04:43;12.13;;;11.43;;
8397;SDS011;4236;54.504;9.588;2023-04-24T08:07:11;11.53;;;10.93;;
8397;SDS011;4236;54.504;9.588;2023-04-24T08:09:39;11.07;;;10.57;;
8397;SDS011;4236;54.504;9.588;2023-04-24T08:12:06;11.70;;;11.10;;
8397;SDS011;4236;54.504;9.588;2023-04-24T08:14:34;11.30;;;10.80;;
8397;SDS011;4236;54.504;9.588;2023-04-24T08:17:02;12.47;;;11.60;;
8397;SDS011;4236;54.504;9.588;2023-04-24T08:19:31;12.27;;;11.57;;
8397;SDS011;4236;54.504;9.588;2023-04-24T08:21:58;12.23;;;11.60;;
8397;SDS011;4236;54.504;9.588;2023-04-24T08:24:27;11.60;;;11.00;;
8397;SDS011;4236;54.504;9.588;2023-04-24T08:26:54;11.40;;;10.83;;
8397;SDS011;4236;54.504;9.588;2023-04-24T08:29:24;12.17;;;11.50;;
8397;SDS011;4236;54.504;9.588;2023-04-24T08:31:52;13.50;;;12.70;;
8397;SDS011;4236;54.504;9.588;2023-04-24T08:34:21;13.37;;;12.47;;
8397;SDS011;4236;54.504;9.588;2023-04-24T08:36:50;14.10;;;13.20;;
8397;SDS011;4236;54.504;9.588;2023-04-24T08:39:18;14.57;;;13.67;;
8397;SDS011;4236;54.504;9.588;2023-04-24T08:41:46;14.70;;;13.67;;
8397;SDS011;4236;54.504;9.588;2023-04-24T08:44:15;13.50;;;12.70;;
8397;SDS011;4236;54.504;9.588;2023-04-24T08:46:44;13.07;;;12.17;;
8397;SDS011;4236;54.504;9.588;2023-04-24T08:49:15;13.40;;;12.47;;
8397;SDS011;4236;54.504;9.588;2023-04-24T08:51:43;12.80;;;12.00;;
8397;SDS011;4236;54.504;9.588;2023-04-24T08:54:14;13.17;;;12.37;;
8397;SDS011;4236;54.504;9.588;2023-04-24T08:56:42;12.97;;;12.20;;
8397;SDS011;4236;54.504;9.588;2023-04-24T08:59:11;12.43;;;11.63;;
8397;SDS011;4236;54.504;9.588;2023-04-24T09:01:39;13.00;;;12.13;;
8397;SDS011;4236;54.504;9.588;2023-04-24T09:04:09;12.73;;;12.00;;
8397;SDS011;4236;54.504;9.588;2023-04-24T09:06:39;12.23;;;11.47;;
8397;SDS011;4236;54.504;9.588;2023-04-24T09:09:06;12.10;;;11.47;;
8397;SDS011;4236;54.504;9.588;2023-04-24T09:11:39;12.73;;;11.83;;
8397;SDS011;4236;54.504;9.588;2023-04-24T09:14:07;12.33;;;11.53;;
8397;SDS011;4236;54.504;9.588;2023-04-24T09:16:36;12.07;;;11.30;;
8397;SDS011;4236;54.504;9.588;2023-04-24T09:19:04;12.43;;;11.73;;
8397;SDS011;4236;54.504;9.588;2023-04-24T09:21:32;11.70;;;11.00;;
8397;SDS011;4236;54.504;9.588;2023-04-24T09:24:01;12.10;;;11.50;;
8397;SDS011;4236;54.504;9.588;2023-04-24T09:26:31;11.97;;;11.17;;
8397;SDS011;4236;54.504;9.588;2023-04-24T09:29:01;10.93;;;10.33;;
8397;SDS011;4236;54.504;9.588;2023-04-24T09:31:30;11.43;;;10.77;;
8397;SDS011;4236;54.504;9.588;2023-04-24T09:33:58;11.87;;;11.17;;
8397;SDS011;4236;54.504;9.588;2023-04-24T09:36:32;12.13;;;11.53;;
8397;SDS011;4236;54.504;9.588;2023-04-24T09:39:04;11.33;;;10.57;;
8397;SDS011;4236;54.504;9.588;2023-04-24T09:41:34;12.23;;;11.53;;
8397;SDS011;4236;54.504;9.588;2023-04-24T09:44:11;11.37;;;10.67;;
8397;SDS011;4236;54.504;9.588;2023-04-24T09:46:41;11.93;;;11.23;;
8397;SDS011;4236;54.504;9.588;2023-04-24T09:49:12;12.20;;;11.33;;
8397;SDS011;4236;54.504;9.588;2023-04-24T09:51:42;12.50;;;11.70;;
8397;SDS011;4236;54.504;9.588;2023-04-24T09:54:14;11.50;;;10.60;;
8397;SDS011;4236;54.504;9.588;2023-04-24T09:56:43;11.60;;;11.00;;
8397;SDS011;4236;54.504;9.588;2023-04-24T09:59:13;12.23;;;11.60;;
8397;SDS011;4236;54.504;9.588;2023-04-24T10:01:42;10.37;;;9.77;;
8397;SDS011;4236;54.504;9.588;2023-04-24T10:04:17;11.37;;;10.57;;
8397;SDS011;4236;54.504;9.588;2023-04-24T10:06:46;12.03;;;11.13;;
8397;SDS011;4236;54.504;9.588;2023-04-24T10:09:15;10.90;;;10.13;;
8397;SDS011;4236;54.504;9.588;2023-04-24T10:11:44;11.47;;;10.77;;
8397;SDS011;4236;54.504;9.588;2023-04-24T10:14:16;12.60;;;11.70;;
8397;SDS011;4236;54.504;9.588;2023-04-24T10:16:46;11.33;;;10.73;;
8397;SDS011;4236;54.504;9.588;2023-04-24T10:19:15;11.80;;;11.17;;
8397;SDS011;4236;54.504;9.588;2023-04-24T10:21:46;12.10;;;11.40;;
8397;SDS011;4236;54.504;9.588;2023-04-24T10:24:14;11.33;;;10.73;;
8397;SDS011;4236;54.504;9.588;2023-04-24T10:26:43;13.30;;;12.30;;
8397;SDS011;4236;54.504;9.588;2023-04-24T10:29:12;12.57;;;11.67;;
8397;SDS011;4236;54.504;9.588;2023-04-24T10:31:43;12.03;;;11.33;;
8397;SDS011;4236;54.504;9.588;2023-04-24T10:34:12;12.27;;;11.57;;
8397;SDS011;4236;54.504;9.588;2023-04-24T10:36:42;13.13;;;12.33;;
8397;SDS011;4236;54.504;9.588;2023-04-24T10:39:15;11.83;;;11.00;;
8397;SDS011;4236;54.504;9.588;2023-04-24T10:41:43;13.10;;;12.13;;
8397;SDS011;4236;54.504;9.588;2023-04-24T10:44:12;13.30;;;12.27;;
8397;SDS011;4236;54.504;9.588;2023-04-24T10:46:44;13.90;;;13.00;;
8397;SDS011;4236;54.504;9.588;2023-04-24T10:49:13;13.87;;;12.97;;
8397;SDS011;4236;54.504;9.588;2023-04-24T10:51:45;13.97;;;13.07;;
8397;SDS011;4236;54.504;9.588;2023-04-24T10:54:24;14.10;;;13.00;;
8397;SDS011;4236;54.504;9.588;2023-04-24T10:56:53;14.03;;;13.07;;
8397;SDS011;4236;54.504;9.588;2023-04-24T10:59:42;14.40;;;13.23;;
8397;SDS011;4236;54.504;9.588;2023-04-24T11:02:10;15.17;;;14.07;;
8397;SDS011;4236;54.504;9.588;2023-04-24T11:04:38;14.90;;;13.60;;
8397;SDS011;4236;54.504;9.588;2023-04-24T11:07:06;12.30;;;11.50;;
8397;SDS011;4236;54.504;9.588;2023-04-24T11:09:33;13.03;;;12.00;;
8397;SDS011;4236;54.504;9.588;2023-04-24T11:12:03;12.47;;;11.77;;
8397;SDS011;4236;54.504;9.588;2023-04-24T11:17:30;13.17;;;12.27;;
8397;SDS011;4236;54.504;9.588;2023-04-24T11:20:03;12.73;;;11.83;;
8397;SDS011;4236;54.504;9.588;2023-04-24T11:22:52;12.90;;;12.00;;
8397;SDS011;4236;54.504;9.588;2023-04-24T11:25:21;12.53;;;11.73;;
8397;SDS011;4236;54.504;9.588;2023-04-24T11:27:49;13.50;;;12.60;;
8397;SDS011;4236;54.504;9.588;2023-04-24T11:30:19;13.17;;;12.37;;
8397;SDS011;4236;54.504;9.588;2023-04-24T11:32:47;14.20;;;13.30;;
8397;SDS011;4236;54.504;9.588;2023-04-24T11:35:17;14.63;;;13.63;;
8397;SDS011;4236;54.504;9.588;2023-04-24T11:37:47;14.40;;;13.33;;
8397;SDS011;4236;54.504;9.588;2023-04-24T11:40:20;15.07;;;13.87;;
8397;SDS011;4236;54.504;9.588;2023-04-24T11:42:50;16.67;;;15.50;;
8397;SDS011;4236;54.504;9.588;2023-04-24T11:45:21;15.07;;;14.07;;
8397;SDS011;4236;54.504;9.588;2023-04-24T11:47:50;15.17;;;14.07;;
8397;SDS011;4236;54.504;9.588;2023-04-24T11:50:18;15.13;;;14.03;;
8397;SDS011;4236;54.504;9.588;2023-04-24T11:52:47;16.20;;;14.90;;
8397;SDS011;4236;54.504;9.588;2023-04-24T11:55:23;15.03;;;14.03;;
8397;SDS011;4236;54.504;9.588;2023-04-24T11:57:54;13.23;;;12.43;;
8397;SDS011;4236;54.504;9.588;2023-04-24T12:00:25;13.80;;;12.90;;
8397;SDS011;4236;54.504;9.588;2023-04-24T12:03:03;11.93;;;11.13;;
8397;SDS011;4236;54.504;9.588;2023-04-24T12:05:33;12.07;;;11.27;;
8397;SDS011;4236;54.504;9.588;2023-04-24T12:08:02;13.87;;;12.70;;
8397;SDS011;4236;54.504;9.588;2023-04-24T12:10:30;14.97;;;13.73;;
8397;SDS011;4236;54.504;9.588;2023-04-24T12:12:58;14.23;;;13.33;;
8397;SDS011;4236;54.504;9.588;2023-04-24T12:15:28;15.30;;;14.20;;
8397;SDS011;4236;54.504;9.588;2023-04-24T12:17:56;13.77;;;12.87;;
8397;SDS011;4236;54.504;9.588;2023-04-24T12:20:24;14.10;;;13.20;;
8397;SDS011;4236;54.504;9.588;2023-04-24T12:22:54;14.63;;;13.63;;
8397;SDS011;4236;54.504;9.588;2023-04-24T12:25:24;13.70;;;12.90;;
8397;SDS011;4236;54.504;9.588;2023-04-24T12:27:53;13.37;;;12.40;;
8397;SDS011;4236;54.504;9.588;2023-04-24T12:30:26;13.63;;;12.73;;
8397;SDS011;4236;54.504;9.588;2023-04-24T12:32:57;13.90;;;12.90;;
8397;SDS011;4236;54.504;9.588;2023-04-24T12:35:28;14.23;;;13.23;;
8397;SDS011;4236;54.504;9.588;2023-04-24T12:38:04;13.27;;;12.07;;
8397;SDS011;4236;54.504;9.588;2023-04-24T12:40:33;13.77;;;12.80;;
8397;SDS011;4236;54.504;9.588;2023-04-24T12:43:01;13.93;;;12.93;;
8397;SDS011;4236;54.504;9.588;2023-04-24T12:45:29;14.07;;;13.10;;
8397;SDS011;4236;54.504;9.588;2023-04-24T12:47:58;14.37;;;13.43;;
8397;SDS011;4236;54.504;9.588;2023-04-24T12:50:25;13.27;;;12.20;;
8397;SDS011;4236;54.504;9.588;2023-04-24T12:52:53;14.10;;;13.20;;
8397;SDS011;4236;54.504;9.588;2023-04-24T12:55:21;13.90;;;13.03;;
8397;SDS011;4236;54.504;9.588;2023-04-24T12:57:49;13.20;;;12.40;;
8397;SDS011;4236;54.504;9.588;2023-04-24T13:00:18;13.80;;;12.80;;
8397;SDS011;4236;54.504;9.588;2023-04-24T13:02:46;14.03;;;13.03;;
8397;SDS011;4236;54.504;9.588;2023-04-24T13:05:15;13.87;;;12.97;;
8397;SDS011;4236;54.504;9.588;2023-04-24T13:07:43;14.10;;;13.20;;
8397;SDS011;4236;54.504;9.588;2023-04-24T13:10:11;14.33;;;13.43;;
8397;SDS011;4236;54.504;9.588;2023-04-24T13:12:39;14.10;;;13.00;;
8397;SDS011;4236;54.504;9.588;2023-04-24T13:15:07;13.47;;;12.57;;
8397;SDS011;4236;54.504;9.588;2023-04-24T13:17:35;12.73;;;11.93;;
8397;SDS011;4236;54.504;9.588;2023-04-24T13:20:04;13.60;;;12.70;;
8397;SDS011;4236;54.504;9.588;2023-04-24T13:22:35;11.93;;;11.13;;
8397;SDS011;4236;54.504;9.588;2023-04-24T13:25:03;11.80;;;10.80;;
8397;SDS011;4236;54.504;9.588;2023-04-24T13:27:33;11.93;;;11.03;;
8397;SDS011;4236;54.504;9.588;2023-04-24T13:30:00;11.70;;;11.00;;
8397;SDS011;4236;54.504;9.588;2023-04-24T13:32:29;11.77;;;11.00;;
8397;SDS011;4236;54.504;9.588;2023-04-24T13:34:57;10.70;;;10.10;;
8397;SDS011;4236;54.504;9.588;2023-04-24T13:37:24;10.50;;;9.80;;
8397;SDS011;4236;54.504;9.588;2023-04-24T13:39:53;11.67;;;10.97;;
8397;SDS011;4236;54.504;9.588;2023-04-24T13:42:21;10.50;;;9.77;;
8397;SDS011;4236;54.504;9.588;2023-04-24T13:44:49;10.50;;;9.87;;
8397;SDS011;4236;54.504;9.588;2023-04-24T13:47:17;9.47;;;8.97;;
8397;SDS011;4236;54.504;9.588;2023-04-24T13:49:46;8.60;;;8.10;;
8397;SDS011;4236;54.504;9.588;2023-04-24T13:52:13;8.00;;;7.53;;
8397;SDS011;4236;54.504;9.588;2023-04-24T13:54:41;6.67;;;6.33;;
8397;SDS011;4236;54.504;9.588;2023-04-24T13:57:10;6.20;;;5.90;;
8397;SDS011;4236;54.504;9.588;2023-04-24T13:59:38;6.60;;;6.40;;
8397;SDS011;4236;54.504;9.588;2023-04-24T14:02:06;6.67;;;6.40;;
8397;SDS011;4236;54.504;9.588;2023-04-24T14:04:34;6.50;;;6.30;;
8397;SDS011;4236;54.504;9.588;2023-04-24T14:07:02;8.33;;;7.50;;
8397;SDS011;4236;54.504;9.588;2023-04-24T14:09:29;8.03;;;7.63;;
8397;SDS011;4236;54.504;9.588;2023-04-24T14:11:57;8.00;;;7.53;;
8397;SDS011;4236;54.504;9.588;2023-04-24T14:14:26;7.90;;;7.60;;
8397;SDS011;4236;54.504;9.588;2023-04-24T14:16:55;8.37;;;7.77;;
8397;SDS011;4236;54.504;9.588;2023-04-24T14:19:23;8.60;;;8.10;;
8397;SDS011;4236;54.504;9.588;2023-04-24T14:21:51;9.77;;;9.07;;
8397;SDS011;4236;54.504;9.588;2023-04-24T14:24:20;9.63;;;8.97;;
8397;SDS011;4236;54.504;9.588;2023-04-24T14:26:47;8.53;;;7.90;;
8397;SDS011;4236;54.504;9.588;2023-04-24T14:29:15;9.33;;;8.83;;
8397;SDS011;4236;54.504;9.588;2023-04-24T14:31:44;9.47;;;8.97;;
8397;SDS011;4236;54.504;9.588;2023-04-24T14:34:13;12.13;;;11.03;;
8397;SDS011;4236;54.504;9.588;2023-04-24T14:36:41;10.83;;;10.17;;
8397;SDS011;4236;54.504;9.588;2023-04-24T14:39:09;12.23;;;11.43;;
8397;SDS011;4236;54.504;9.588;2023-04-24T14:41:37;12.00;;;11.10;;
8397;SDS011;4236;54.504;9.588;2023-04-24T14:44:05;13.90;;;12.80;;
8397;SDS011;4236;54.504;9.588;2023-04-24T14:46:33;12.77;;;11.80;;
8397;SDS011;4236;54.504;9.588;2023-04-24T14:49:02;14.47;;;13.17;;
8397;SDS011;4236;54.504;9.588;2023-04-24T14:51:30;13.33;;;12.30;;
8397;SDS011;4236;54.504;9.588;2023-04-24T14:53:58;12.83;;;11.73;;
8397;SDS011;4236;54.504;9.588;2023-04-24T14:56:25;14.13;;;12.93;;
8397;SDS011;4236;54.504;9.588;2023-04-24T14:58:54;14.47;;;13.10;;
8397;SDS011;4236;54.504;9.588;2023-04-24T15:01:22;13.27;;;12.37;;